createdAt,value
2023-02-19T00:01:36.576Z,59.85
2023-02-19T00:04:07.304Z,59.94
2023-02-19T00:06:36.193Z,59.73
2023-02-19T00:09:04.558Z,59.57
2023-02-19T00:11:34.115Z,59.57
2023-02-19T00:14:03.506Z,59.54
2023-02-19T00:16:32.897Z,59.66
2023-02-19T00:19:02.404Z,59.51
2023-02-19T00:21:30.344Z,59.27
2023-02-19T00:24:01.494Z,59.19
2023-02-19T00:26:29.571Z,59.16
2023-02-19T00:28:58.010Z,59.41
2023-02-19T00:31:27.643Z,59.03
2023-02-19T00:33:58.665Z,59.23
2023-02-19T00:36:28.004Z,59.25
2023-02-19T00:38:55.376Z,59.32
2023-02-19T00:41:24.666Z,59.24
2023-02-19T00:43:54.818Z,58.55
2023-02-19T00:46:24.344Z,58.96
2023-02-19T00:48:54.813Z,58.98
2023-02-19T00:51:23.569Z,58.96
2023-02-19T00:53:51.337Z,58.62
2023-02-19T00:56:18.822Z,58.62
2023-02-19T00:58:48.278Z,58.55
2023-02-19T01:01:15.956Z,58.58
2023-02-19T01:03:43.312Z,58.98
2023-02-19T01:06:13.115Z,58.78
2023-02-19T01:08:40.098Z,59.07
2023-02-19T01:11:08.889Z,59.28
2023-02-19T01:13:36.241Z,59.12
2023-02-19T01:16:06.796Z,58.88
2023-02-19T01:18:33.987Z,58.89
2023-02-19T01:21:05.530Z,59.04
2023-02-19T01:23:32.725Z,59.20
2023-02-19T01:25:59.688Z,58.97
2023-02-19T01:28:26.854Z,58.60
2023-02-19T01:30:53.821Z,58.73
2023-02-19T01:33:22.350Z,58.39
2023-02-19T01:35:49.296Z,58.91
2023-02-19T01:38:16.154Z,58.76
2023-02-19T01:40:43.050Z,58.54
2023-02-19T01:43:16.083Z,59.33
2023-02-19T01:45:45.304Z,59.17
2023-02-19T01:48:18.879Z,59.73
2023-02-19T01:50:52.678Z,58.82
2023-02-19T01:53:25.840Z,59.24
2023-02-19T01:55:59.367Z,58.90
2023-02-19T01:58:33.335Z,59.09
2023-02-19T02:01:02.793Z,58.87
2023-02-19T02:03:31.255Z,58.86
2023-02-19T02:06:05.233Z,59.01
2023-02-19T02:08:52.165Z,59.02
2023-02-19T02:11:20.605Z,58.68
2023-02-19T02:13:48.762Z,58.47
2023-02-19T02:16:25.236Z,58.50
2023-02-19T02:19:09.560Z,58.87
2023-02-19T02:21:59.027Z,58.99
2023-02-19T02:25:13.125Z,58.41
2023-02-19T02:27:51.429Z,58.47
2023-02-19T02:30:39.112Z,58.85
2023-02-19T02:33:21.616Z,58.56
2023-02-19T02:35:54.222Z,58.39
2023-02-19T02:38:28.080Z,59.07
2023-02-19T02:40:56.643Z,59.26
2023-02-19T02:43:24.409Z,58.52
2023-02-19T02:45:52.790Z,58.32
2023-02-19T02:48:30.290Z,58.58
2023-02-19T02:51:04.734Z,58.29
2023-02-19T02:53:57.181Z,58.56
2023-02-19T02:56:26.416Z,58.10
2023-02-19T02:58:57.553Z,57.75
2023-02-19T03:01:51.265Z,58.06
2023-02-19T03:04:27.482Z,56.97
2023-02-19T03:06:56.424Z,56.87
2023-02-19T03:09:40.565Z,56.71
2023-02-19T03:12:32.387Z,57.18
2023-02-19T03:15:28.488Z,57.45
2023-02-19T03:18:21.005Z,57.97
2023-02-19T03:20:53.216Z,57.73
2023-02-19T03:23:43.369Z,57.94
2023-02-19T03:26:11.946Z,58.37
2023-02-19T03:29:00.918Z,58.00
2023-02-19T03:31:33.112Z,58.13
2023-02-19T03:34:05.687Z,57.94
2023-02-19T03:36:42.218Z,57.88
2023-02-19T03:39:14.174Z,58.54
2023-02-19T03:41:53.005Z,57.79
2023-02-19T03:44:33.418Z,58.62
2023-02-19T03:47:08.328Z,58.23
2023-02-19T03:49:48.836Z,57.64
2023-02-19T03:52:23.732Z,58.09
2023-02-19T03:55:03.068Z,58.03
2023-02-19T03:57:39.359Z,57.95
2023-02-19T04:00:13.826Z,57.65
2023-02-19T04:02:50.201Z,57.68
2023-02-19T04:05:22.619Z,57.49
2023-02-19T04:07:54.280Z,57.62
2023-02-19T04:10:22.566Z,57.84
2023-02-19T04:12:57.664Z,57.48
2023-02-19T04:15:31.615Z,57.64
2023-02-19T04:18:04.124Z,57.12
2023-02-19T04:20:39.081Z,56.89
2023-02-19T04:23:06.860Z,57.44
2023-02-19T04:25:37.067Z,57.61
2023-02-19T04:28:04.662Z,57.65
2023-02-19T04:30:32.488Z,57.91
2023-02-19T04:32:59.357Z,57.08
2023-02-19T04:35:26.326Z,57.86
2023-02-19T04:37:54.500Z,57.18
2023-02-19T04:40:21.370Z,57.83
2023-02-19T04:42:48.219Z,57.41
2023-02-19T04:45:15.272Z,57.62
2023-02-19T04:47:42.120Z,57.30
2023-02-19T04:50:09.248Z,57.60
2023-02-19T04:52:36.382Z,57.51
2023-02-19T04:55:05.889Z,57.50
2023-02-19T04:57:32.760Z,56.77
2023-02-19T04:59:59.668Z,56.66
2023-02-19T05:02:26.617Z,57.06
2023-02-19T05:04:53.582Z,56.99
2023-02-19T05:07:20.446Z,56.95
2023-02-19T05:09:47.363Z,57.06
2023-02-19T05:12:15.532Z,56.97
2023-02-19T05:14:42.400Z,57.32
2023-02-19T05:17:09.277Z,57.41
2023-02-19T05:19:36.229Z,58.30
2023-02-19T05:22:03.137Z,57.92
2023-02-19T05:24:31.459Z,57.97
2023-02-19T05:26:58.387Z,57.66
2023-02-19T05:29:26.908Z,58.05
2023-02-19T05:31:53.931Z,57.09
2023-02-19T05:34:20.929Z,57.39
2023-02-19T05:36:47.792Z,57.11
2023-02-19T05:39:14.738Z,57.28
2023-02-19T05:41:41.873Z,57.06
2023-02-19T05:44:10.609Z,57.10
2023-02-19T05:46:38.920Z,56.77
2023-02-19T05:49:05.848Z,57.03
2023-02-19T05:51:32.731Z,57.19
2023-02-19T05:53:59.672Z,57.23
2023-02-19T05:56:35.914Z,57.14
2023-02-19T05:59:07.758Z,57.19
2023-02-19T06:01:35.482Z,57.23
2023-02-19T06:04:04.180Z,58.41
2023-02-19T06:06:31.219Z,57.50
2023-02-19T06:08:58.253Z,58.42
2023-02-19T06:11:25.717Z,57.85
2023-02-19T06:13:53.006Z,57.91
2023-02-19T06:16:20.023Z,57.14
2023-02-19T06:18:47.524Z,57.59
2023-02-19T06:21:17.405Z,57.59
2023-02-19T06:23:44.847Z,57.46
2023-02-19T06:26:14.761Z,57.70
2023-02-19T06:28:42.593Z,57.33
2023-02-19T06:31:10.892Z,57.44
2023-02-19T06:33:40.425Z,58.08
2023-02-19T06:36:11.523Z,57.68
2023-02-19T06:38:40.271Z,57.93
2023-02-19T06:41:09.802Z,57.83
2023-02-19T06:43:36.938Z,58.41
2023-02-19T06:46:06.530Z,58.36
2023-02-19T06:48:34.883Z,58.20
2023-02-19T06:51:02.079Z,59.03
2023-02-19T06:53:29.463Z,58.47
2023-02-19T06:55:59.616Z,58.79
2023-02-19T06:58:26.993Z,58.76
2023-02-19T07:00:54.221Z,59.51
2023-02-19T07:03:21.913Z,59.23
2023-02-19T07:05:49.070Z,58.88
2023-02-19T07:08:17.244Z,58.32
2023-02-19T07:10:44.549Z,58.67
2023-02-19T07:13:12.899Z,58.77
2023-02-19T07:15:39.786Z,58.79
2023-02-19T07:18:10.215Z,58.82
2023-02-19T07:20:37.612Z,58.16
2023-02-19T07:23:04.531Z,58.13
2023-02-19T07:25:31.618Z,58.40
2023-02-19T07:27:58.578Z,58.21
2023-02-19T07:30:26.816Z,59.02
2023-02-19T07:32:53.727Z,59.03
2023-02-19T07:35:20.623Z,59.19
2023-02-19T07:37:47.472Z,59.04
2023-02-19T07:40:14.714Z,58.53
2023-02-19T07:42:41.672Z,58.08
2023-02-19T07:45:08.860Z,58.32
2023-02-19T07:47:37.226Z,57.81
2023-02-19T07:50:04.906Z,57.75
2023-02-19T07:52:33.471Z,57.22
2023-02-19T07:55:00.339Z,57.48
2023-02-19T07:57:28.763Z,57.04
2023-02-19T07:59:55.619Z,56.75
2023-02-19T08:02:41.157Z,56.15
2023-02-19T08:05:10.483Z,55.68
2023-02-19T08:07:37.727Z,55.76
2023-02-19T08:10:24.714Z,55.35
2023-02-19T08:13:17.863Z,55.63
2023-02-19T08:15:45.350Z,55.45
2023-02-19T08:18:14.141Z,55.51
2023-02-19T08:20:43.727Z,55.79
2023-02-19T08:23:12.191Z,55.32
2023-02-19T08:25:40.601Z,54.77
2023-02-19T08:28:10.665Z,53.60
2023-02-19T08:30:39.817Z,52.34
2023-02-19T08:33:08.323Z,51.55
2023-02-19T08:35:36.512Z,50.96
2023-02-19T08:38:07.991Z,50.38
2023-02-19T08:40:35.344Z,50.17
2023-02-19T08:43:04.322Z,50.17
2023-02-19T08:45:31.287Z,49.28
2023-02-19T08:47:58.483Z,49.30
2023-02-19T08:50:26.060Z,49.71
2023-02-19T08:52:53.200Z,49.31
2023-02-19T08:55:21.707Z,48.70
2023-02-19T08:57:50.604Z,48.28
2023-02-19T09:00:18.455Z,48.05
2023-02-19T09:02:45.483Z,47.32
2023-02-19T09:05:12.676Z,47.06
2023-02-19T09:07:40.383Z,47.71
2023-02-19T09:10:09.807Z,46.99
2023-02-19T09:12:38.314Z,46.78
2023-02-19T09:15:06.606Z,46.50
2023-02-19T09:17:33.534Z,45.74
2023-02-19T09:20:00.384Z,45.47
2023-02-19T09:22:27.395Z,45.08
2023-02-19T09:24:54.326Z,44.02
2023-02-19T09:27:21.783Z,44.44
2023-02-19T09:29:50.017Z,44.01
2023-02-19T09:32:19.087Z,44.16
2023-02-19T09:34:46.383Z,44.75
2023-02-19T09:37:13.282Z,44.30
2023-02-19T09:39:40.196Z,44.40
2023-02-19T09:42:18.296Z,43.79
2023-02-19T09:44:50.359Z,44.59
2023-02-19T09:47:20.380Z,44.50
2023-02-19T09:49:51.230Z,42.94
2023-02-19T09:52:30.443Z,41.04
2023-02-19T09:55:02.719Z,38.21
2023-02-19T09:57:35.842Z,37.81
2023-02-19T10:00:23.598Z,37.14
2023-02-19T10:03:00.450Z,36.57
2023-02-19T10:05:28.145Z,34.73
2023-02-19T10:07:56.359Z,34.60
2023-02-19T10:10:29.953Z,33.94
2023-02-19T10:13:12.999Z,33.08
2023-02-19T10:15:48.583Z,32.93
2023-02-19T10:18:22.399Z,34.29
2023-02-19T10:20:51.771Z,35.31
2023-02-19T10:23:19.406Z,35.79
2023-02-19T10:25:52.176Z,34.18
2023-02-19T10:28:25.054Z,32.91
2023-02-19T10:30:57.682Z,32.90
2023-02-19T10:33:26.154Z,32.65
2023-02-19T10:35:57.154Z,32.35
2023-02-19T10:38:28.816Z,32.43
2023-02-19T10:41:04.542Z,31.76
2023-02-19T10:43:37.138Z,30.01
2023-02-19T10:46:16.717Z,30.02
2023-02-19T10:48:51.768Z,30.27
2023-02-19T10:51:22.844Z,30.12
2023-02-19T10:54:02.543Z,30.16
2023-02-19T10:56:31.271Z,31.03
2023-02-19T10:59:21.083Z,31.21
2023-02-19T11:01:57.547Z,31.43
2023-02-19T11:04:27.045Z,31.64
2023-02-19T11:06:54.540Z,31.42
2023-02-19T11:09:35.151Z,31.15
2023-02-19T11:12:04.858Z,31.78
2023-02-19T11:14:34.009Z,32.36
2023-02-19T11:17:05.554Z,32.63
2023-02-19T11:19:38.816Z,32.79
2023-02-19T11:22:46.938Z,32.18
2023-02-19T11:25:25.704Z,31.55
2023-02-19T11:28:02.506Z,32.12
2023-02-19T11:30:39.741Z,32.27
2023-02-19T11:33:27.734Z,31.50
2023-02-19T11:36:24.432Z,31.73
2023-02-19T11:38:51.444Z,31.91
2023-02-19T11:41:45.367Z,32.03
2023-02-19T11:44:32.694Z,32.70
2023-02-19T11:47:30.894Z,32.26
2023-02-19T11:50:11.593Z,31.83
2023-02-19T11:52:52.301Z,30.89
2023-02-19T11:55:35.418Z,31.52
2023-02-19T11:58:32.350Z,31.06
2023-02-19T12:01:11.995Z,30.71
2023-02-19T12:04:08.282Z,30.78
2023-02-19T12:06:59.727Z,30.35
2023-02-19T12:09:47.757Z,31.22
2023-02-19T12:12:33.405Z,31.69
2023-02-19T12:15:40.985Z,32.10
2023-02-19T12:19:09.029Z,32.15
2023-02-19T12:22:03.613Z,32.06
2023-02-19T12:25:00.511Z,31.92
2023-02-19T12:27:45.629Z,32.32
2023-02-19T12:30:35.392Z,31.66
2023-02-19T12:33:29.345Z,31.96
2023-02-19T12:36:13.347Z,31.36
2023-02-19T12:38:45.311Z,31.03
2023-02-19T12:41:35.689Z,31.59
2023-02-19T12:44:12.423Z,31.51
2023-02-19T12:46:46.664Z,32.18
2023-02-19T12:49:24.909Z,31.87
2023-02-19T12:51:59.634Z,31.65
2023-02-19T12:54:34.609Z,31.28
2023-02-19T12:57:06.508Z,31.19
2023-02-19T12:59:42.457Z,31.47
2023-02-19T13:02:19.341Z,30.35
2023-02-19T13:04:58.568Z,29.84
2023-02-19T13:07:35.233Z,29.60
2023-02-19T13:10:23.160Z,29.82
2023-02-19T13:12:54.609Z,29.47
2023-02-19T13:15:31.598Z,29.51
2023-02-19T13:18:02.495Z,29.10
2023-02-19T13:20:35.182Z,29.24
2023-02-19T13:23:29.993Z,29.04
2023-02-19T13:26:23.373Z,28.74
2023-02-19T13:29:13.623Z,29.64
2023-02-19T13:32:05.855Z,29.32
2023-02-19T13:34:55.481Z,29.74
2023-02-19T13:37:24.682Z,29.36
2023-02-19T13:39:55.418Z,29.43
2023-02-19T13:42:32.730Z,29.73
2023-02-19T13:45:01.605Z,29.36
2023-02-19T13:47:58.322Z,29.49
2023-02-19T13:50:28.768Z,29.70
2023-02-19T13:52:57.007Z,30.59
2023-02-19T13:55:52.555Z,30.53
2023-02-19T13:59:01.375Z,31.23
2023-02-19T14:02:26.859Z,31.38
2023-02-19T14:05:00.342Z,31.95
2023-02-19T14:07:54.381Z,32.50
2023-02-19T14:10:52.923Z,32.85
2023-02-19T14:13:59.372Z,33.34
2023-02-19T14:16:50.228Z,33.68
2023-02-19T14:19:47.970Z,33.81
2023-02-19T14:23:01.253Z,34.39
2023-02-19T14:25:49.442Z,34.64
2023-02-19T14:28:36.112Z,35.13
2023-02-19T14:31:18.163Z,35.36
2023-02-19T14:33:50.250Z,35.52
2023-02-19T14:36:32.819Z,35.85
2023-02-19T14:39:03.891Z,35.78
2023-02-19T14:41:36.745Z,35.54
2023-02-19T14:44:07.402Z,35.79
2023-02-19T14:46:43.078Z,35.76
2023-02-19T14:49:20.237Z,36.02
2023-02-19T14:51:53.998Z,36.27
2023-02-19T14:54:38.919Z,37.00
2023-02-19T14:57:17.070Z,36.74
2023-02-19T14:59:54.149Z,37.24
2023-02-19T15:02:21.989Z,37.17
2023-02-19T15:04:48.976Z,37.37
2023-02-19T15:07:23.336Z,37.33
2023-02-19T15:09:54.680Z,37.27
2023-02-19T15:12:26.493Z,37.37
2023-02-19T15:14:57.095Z,37.28
2023-02-19T15:17:29.115Z,37.75
2023-02-19T15:20:25.572Z,38.00
2023-02-19T15:22:56.095Z,38.04
2023-02-19T15:25:29.661Z,37.92
2023-02-19T15:27:56.637Z,38.39
2023-02-19T15:30:27.441Z,38.09
2023-02-19T15:32:57.642Z,38.29
2023-02-19T15:35:27.582Z,38.44
2023-02-19T15:37:56.796Z,38.27
2023-02-19T15:40:30.884Z,38.78
2023-02-19T15:42:59.164Z,38.73
2023-02-19T15:45:31.407Z,38.81
2023-02-19T15:48:06.927Z,39.03
2023-02-19T15:50:39.901Z,38.91
2023-02-19T15:53:34.065Z,39.11
2023-02-19T15:56:08.832Z,38.93
2023-02-19T15:58:42.570Z,39.28
2023-02-19T16:01:19.399Z,39.25
2023-02-19T16:03:47.644Z,39.68
2023-02-19T16:06:23.251Z,39.83
2023-02-19T16:09:25.735Z,40.10
2023-02-19T16:11:58.961Z,40.38
2023-02-19T16:14:32.162Z,40.25
2023-02-19T16:17:11.972Z,40.49
2023-02-19T16:19:47.616Z,40.76
2023-02-19T16:22:18.935Z,40.55
2023-02-19T16:24:51.292Z,40.71
2023-02-19T16:27:31.162Z,40.81
2023-02-19T16:30:00.687Z,40.89
2023-02-19T16:32:27.765Z,41.10
2023-02-19T16:34:54.893Z,41.35
2023-02-19T16:37:38.666Z,41.44
2023-02-19T16:41:10.824Z,41.43
2023-02-19T16:43:43.305Z,41.73
2023-02-19T16:46:12.771Z,42.01
2023-02-19T16:48:39.932Z,42.09
2023-02-19T16:51:08.609Z,42.05
2023-02-19T16:53:35.777Z,42.35
2023-02-19T16:56:04.668Z,42.45
2023-02-19T16:58:31.563Z,42.78
2023-02-19T17:00:58.498Z,42.75
2023-02-19T17:03:26.132Z,43.00
2023-02-19T17:05:53.468Z,43.11
2023-02-19T17:08:40.519Z,43.17
2023-02-19T17:11:13.598Z,43.31
2023-02-19T17:13:42.024Z,43.76
2023-02-19T17:16:17.605Z,43.83
2023-02-19T17:18:44.645Z,43.98
2023-02-19T17:21:17.938Z,44.08
2023-02-19T17:23:45.295Z,44.26
2023-02-19T17:26:15.030Z,44.27
2023-02-19T17:28:42.330Z,44.34
2023-02-19T17:31:10.397Z,44.47
2023-02-19T17:33:38.093Z,44.65
2023-02-19T17:36:06.286Z,44.85
2023-02-19T17:38:33.477Z,44.83
2023-02-19T17:41:00.398Z,45.37
2023-02-19T17:43:28.638Z,45.22
2023-02-19T17:45:55.558Z,45.37
2023-02-19T17:48:22.438Z,45.35
2023-02-19T17:50:50.193Z,45.58
2023-02-19T17:53:17.053Z,45.84
2023-02-19T17:55:44.485Z,45.91
2023-02-19T17:58:11.870Z,46.04
2023-02-19T18:00:40.304Z,45.84
2023-02-19T18:03:07.861Z,46.03
2023-02-19T18:05:34.776Z,46.09
2023-02-19T18:08:01.895Z,46.18
2023-02-19T18:10:30.420Z,46.10
2023-02-19T18:12:57.433Z,46.18
2023-02-19T18:15:26.755Z,46.35
2023-02-19T18:17:56.285Z,46.18
2023-02-19T18:20:26.010Z,46.22
2023-02-19T18:22:54.024Z,46.49
2023-02-19T18:25:22.653Z,46.20
2023-02-19T18:27:50.427Z,46.71
2023-02-19T18:30:22.462Z,46.50
2023-02-19T18:32:49.972Z,46.61
2023-02-19T18:35:20.299Z,46.56
2023-02-19T18:37:51.533Z,46.75
2023-02-19T18:40:19.714Z,46.72
2023-02-19T18:42:46.613Z,46.56
2023-02-19T18:45:14.624Z,46.71
2023-02-19T18:47:41.770Z,46.71
2023-02-19T18:50:10.640Z,46.75
2023-02-19T18:52:38.904Z,46.82
2023-02-19T18:55:07.285Z,46.44
2023-02-19T18:57:34.149Z,47.42
2023-02-19T19:00:01.058Z,46.98
2023-02-19T19:02:33.687Z,46.76
2023-02-19T19:05:06.853Z,46.77
2023-02-19T19:07:33.714Z,47.02
2023-02-19T19:10:02.091Z,47.25
2023-02-19T19:12:29.007Z,47.26
2023-02-19T19:14:55.968Z,47.25
2023-02-19T19:17:22.830Z,47.35
2023-02-19T19:19:49.757Z,47.37
2023-02-19T19:22:22.093Z,47.33
2023-02-19T19:24:49.131Z,47.52
2023-02-19T19:27:20.539Z,47.32
2023-02-19T19:29:47.867Z,47.57
2023-02-19T19:32:14.963Z,47.68
2023-02-19T19:34:42.987Z,47.67
2023-02-19T19:37:09.922Z,47.94
2023-02-19T19:39:37.266Z,48.13
2023-02-19T19:42:04.982Z,48.35
2023-02-19T19:44:33.252Z,48.26
2023-02-19T19:47:00.133Z,48.17
2023-02-19T19:49:27.118Z,48.59
2023-02-19T19:51:54.080Z,48.59
2023-02-19T19:54:20.966Z,48.59
2023-02-19T19:56:49.719Z,48.46
2023-02-19T19:59:17.891Z,48.65
2023-02-19T20:01:51.789Z,48.67
2023-02-19T20:04:21.100Z,48.57
2023-02-19T20:06:49.094Z,49.05
2023-02-19T20:09:17.140Z,49.05
2023-02-19T20:11:45.899Z,49.14
2023-02-19T20:14:12.869Z,48.76
2023-02-19T20:16:39.739Z,48.97
2023-02-19T20:19:08.478Z,48.82
2023-02-19T20:21:35.450Z,49.12
2023-02-19T20:24:02.950Z,49.07
2023-02-19T20:26:31.706Z,49.43
2023-02-19T20:28:59.115Z,49.47
2023-02-19T20:31:26.507Z,49.32
2023-02-19T20:33:53.625Z,49.13
2023-02-19T20:36:22.052Z,49.82
2023-02-19T20:38:50.175Z,49.50
2023-02-19T20:41:17.019Z,49.52
2023-02-19T20:43:43.912Z,49.66
2023-02-19T20:46:11.696Z,49.73
2023-02-19T20:48:39.139Z,49.92
2023-02-19T20:51:06.178Z,49.69
2023-02-19T20:53:34.547Z,50.16
2023-02-19T20:56:01.666Z,50.00
2023-02-19T20:58:28.544Z,49.97
2023-02-19T21:00:55.721Z,49.71
2023-02-19T21:03:22.648Z,50.21
2023-02-19T21:05:49.676Z,50.14
2023-02-19T21:08:17.263Z,50.26
2023-02-19T21:10:46.517Z,50.26
2023-02-19T21:13:13.997Z,50.57
2023-02-19T21:15:41.051Z,50.90
2023-02-19T21:18:08.195Z,50.90
2023-02-19T21:20:35.125Z,50.63
2023-02-19T21:23:02.093Z,51.27
2023-02-19T21:25:31.307Z,51.43
2023-02-19T21:27:59.505Z,51.16
2023-02-19T21:30:26.391Z,50.92
2023-02-19T21:32:53.358Z,50.97
2023-02-19T21:35:20.267Z,51.10
2023-02-19T21:37:47.136Z,51.47
2023-02-19T21:40:14.664Z,51.13
2023-02-19T21:42:41.534Z,51.48
2023-02-19T21:45:09.993Z,51.33
2023-02-19T21:47:36.862Z,51.22
2023-02-19T21:50:04.579Z,51.05
2023-02-19T21:52:31.718Z,51.34
2023-02-19T21:54:58.666Z,51.27
2023-02-19T21:57:25.610Z,51.20
2023-02-19T21:59:52.483Z,51.33
2023-02-19T22:02:22.137Z,51.31
2023-02-19T22:04:53.480Z,50.97
2023-02-19T22:07:21.550Z,50.91
2023-02-19T22:09:49.265Z,50.96
2023-02-19T22:12:16.441Z,50.96
2023-02-19T22:14:43.361Z,50.88
2023-02-19T22:17:10.863Z,50.83
2023-02-19T22:19:39.201Z,50.87
2023-02-19T22:22:06.187Z,51.06
2023-02-19T22:24:33.048Z,51.09
2023-02-19T22:26:59.966Z,51.05
2023-02-19T22:29:26.875Z,51.32
2023-02-19T22:31:53.994Z,51.08
2023-02-19T22:34:20.986Z,51.05
2023-02-19T22:36:49.491Z,51.20
2023-02-19T22:39:19.379Z,51.19
2023-02-19T22:41:46.756Z,51.70
2023-02-19T22:44:14.015Z,51.71
2023-02-19T22:46:48.259Z,51.79
2023-02-19T22:49:15.518Z,52.16
2023-02-19T22:51:52.013Z,51.71
2023-02-19T22:54:21.698Z,51.80
2023-02-19T22:56:48.622Z,52.37
2023-02-19T22:59:15.569Z,52.22
2023-02-19T23:01:43.003Z,52.47
2023-02-19T23:04:09.972Z,52.38
2023-02-19T23:06:37.774Z,52.72
2023-02-19T23:09:10.715Z,53.16
2023-02-19T23:11:39.294Z,53.02
2023-02-19T23:14:07.595Z,53.13
2023-02-19T23:16:38.232Z,53.28
2023-02-19T23:19:08.017Z,53.42
2023-02-19T23:21:34.975Z,53.65
2023-02-19T23:24:02.020Z,53.60
2023-02-19T23:26:30.419Z,53.83
2023-02-19T23:28:57.825Z,53.36
2023-02-19T23:31:26.684Z,53.21
2023-02-19T23:33:55.076Z,53.35
2023-02-19T23:36:23.754Z,53.58
2023-02-19T23:38:50.959Z,53.63
2023-02-19T23:41:18.708Z,53.49
2023-02-19T23:43:47.284Z,53.16
2023-02-19T23:46:17.656Z,53.52
2023-02-19T23:48:46.039Z,53.05
2023-02-19T23:51:13.071Z,53.33
2023-02-19T23:53:40.299Z,53.37
2023-02-19T23:56:07.866Z,53.36
2023-02-19T23:58:34.802Z,52.94
